createdAt,value
2019-04-30T00:01:59.134Z,92.20
2019-04-30T00:04:29.827Z,92.10
2019-04-30T00:06:55.754Z,92.00
2019-04-30T00:09:25.069Z,92.00
2019-04-30T00:11:57.908Z,92.00
2019-04-30T00:14:19.704Z,92.10
2019-04-30T00:16:45.960Z,92.10
2019-04-30T00:19:17.881Z,92.00
2019-04-30T00:21:40.430Z,91.90
2019-04-30T00:24:10.256Z,92.00
2019-04-30T00:26:35.484Z,92.00
2019-04-30T00:29:01.772Z,92.00
2019-04-30T00:31:28.012Z,92.20
2019-04-30T00:33:57.950Z,92.30
2019-04-30T00:36:27.081Z,92.30
2019-04-30T00:38:50.826Z,92.70
2019-04-30T00:41:17.089Z,92.40
2019-04-30T00:43:49.366Z,92.40
2019-04-30T00:46:11.455Z,92.20
2019-04-30T00:48:37.678Z,92.30
2019-04-30T00:51:07.476Z,92.40
2019-04-30T00:53:32.062Z,92.50
2019-04-30T00:55:58.312Z,92.60
2019-04-30T00:58:30.084Z,92.60
2019-04-30T01:01:11.355Z,92.60
2019-04-30T01:03:46.447Z,92.60
2019-04-30T01:06:08.223Z,92.50
2019-04-30T01:08:35.838Z,92.60
2019-04-30T01:11:06.489Z,92.80
2019-04-30T01:13:30.841Z,92.70
2019-04-30T01:15:58.800Z,92.70
2019-04-30T01:18:28.530Z,92.70
2019-04-30T01:20:53.388Z,92.70
2019-04-30T01:23:19.916Z,92.60
2019-04-30T01:25:49.918Z,92.60
2019-04-30T01:28:16.482Z,92.70
2019-04-30T01:30:44.353Z,92.70
2019-04-30T01:33:10.812Z,92.70
2019-04-30T01:35:38.212Z,92.60
2019-04-30T01:38:11.135Z,92.70
2019-04-30T01:40:35.994Z,92.70
2019-04-30T01:43:02.225Z,92.70
2019-04-30T01:45:31.569Z,92.70
2019-04-30T01:48:00.583Z,92.70
2019-04-30T01:50:26.270Z,92.80
2019-04-30T01:52:52.499Z,92.80
2019-04-30T01:55:22.536Z,92.80
2019-04-30T01:57:53.391Z,92.60
2019-04-30T02:00:21.651Z,92.70
2019-04-30T02:02:49.524Z,92.70
2019-04-30T02:05:15.946Z,92.80
2019-04-30T02:07:42.268Z,92.80
2019-04-30T02:10:09.121Z,92.80
2019-04-30T02:12:35.329Z,92.70
2019-04-30T02:15:01.559Z,92.80
2019-04-30T02:17:29.298Z,92.70
2019-04-30T02:19:56.979Z,92.70
2019-04-30T02:22:23.822Z,92.80
2019-04-30T02:24:50.061Z,93.00
2019-04-30T02:27:16.286Z,92.90
2019-04-30T02:29:42.500Z,93.00
2019-04-30T02:32:10.170Z,92.90
2019-04-30T02:34:41.139Z,93.00
2019-04-30T02:37:23.403Z,92.90
2019-04-30T02:39:50.285Z,92.80
2019-04-30T02:42:20.158Z,92.90
2019-04-30T02:44:50.262Z,92.90
2019-04-30T02:47:20.521Z,92.80
2019-04-30T02:49:52.901Z,92.90
2019-04-30T02:52:19.551Z,92.90
2019-04-30T02:54:50.468Z,92.90
2019-04-30T02:57:16.779Z,93.20
2019-04-30T03:00:01.676Z,93.30
2019-04-30T03:02:29.360Z,93.30
2019-04-30T03:04:55.648Z,93.30
2019-04-30T03:07:21.891Z,93.30
2019-04-30T03:09:49.927Z,93.30
2019-04-30T03:12:16.297Z,93.30
2019-04-30T03:14:42.533Z,93.30
2019-04-30T03:17:10.683Z,93.40
2019-04-30T03:19:56.735Z,93.50
2019-04-30T03:22:24.877Z,93.60
2019-04-30T03:24:51.119Z,93.50
2019-04-30T03:27:17.385Z,93.60
2019-04-30T03:29:43.612Z,93.70
2019-04-30T03:32:13.177Z,93.70
2019-04-30T03:34:41.819Z,93.70
2019-04-30T03:37:06.120Z,93.60
2019-04-30T03:39:34.037Z,93.60
2019-04-30T03:42:00.480Z,94.00
2019-04-30T03:44:31.574Z,93.80
2019-04-30T03:46:54.909Z,93.90
2019-04-30T03:49:21.144Z,94.00
2019-04-30T03:51:49.693Z,94.00
2019-04-30T03:54:15.537Z,94.00
2019-04-30T03:56:42.597Z,94.10
2019-04-30T03:59:10.598Z,94.20
2019-04-30T04:01:44.856Z,94.10
2019-04-30T04:04:15.703Z,94.10
2019-04-30T04:06:55.749Z,94.00
2019-04-30T04:09:23.879Z,94.10
2019-04-30T04:11:51.014Z,94.00
2019-04-30T04:14:19.606Z,94.00
2019-04-30T04:17:00.720Z,94.10
2019-04-30T04:19:29.123Z,94.10
2019-04-30T04:21:55.091Z,94.70
2019-04-30T04:24:21.367Z,94.90
2019-04-30T04:26:50.227Z,95.00
2019-04-30T04:29:15.734Z,94.60
2019-04-30T04:31:41.982Z,94.50
2019-04-30T04:34:09.353Z,94.40
2019-04-30T04:36:35.671Z,94.40
2019-04-30T04:39:03.015Z,94.30
2019-04-30T04:41:29.626Z,94.30
2019-04-30T04:44:00.185Z,94.30
2019-04-30T04:46:26.356Z,94.20
2019-04-30T04:48:52.593Z,94.20
2019-04-30T04:51:33.262Z,94.30
2019-04-30T04:53:47.033Z,94.30
2019-04-30T04:56:13.243Z,94.20
2019-04-30T04:58:40.151Z,94.20
2019-04-30T05:01:09.038Z,94.30
2019-04-30T05:03:36.684Z,94.40
2019-04-30T05:06:03.143Z,94.30
2019-04-30T05:08:29.400Z,94.40
2019-04-30T05:10:55.753Z,94.40
2019-04-30T05:13:21.983Z,94.40
2019-04-30T05:15:51.272Z,94.40
2019-04-30T05:18:16.644Z,94.50
2019-04-30T05:20:42.883Z,94.60
2019-04-30T05:23:09.511Z,94.60
2019-04-30T05:25:35.865Z,94.50
2019-04-30T05:28:02.487Z,94.50
2019-04-30T05:30:29.536Z,94.60
2019-04-30T05:32:56.237Z,94.60
2019-04-30T05:35:22.492Z,94.60
2019-04-30T05:37:49.503Z,94.70
2019-04-30T05:40:15.971Z,94.60
2019-04-30T05:42:42.241Z,95.00
2019-04-30T05:45:09.453Z,94.70
2019-04-30T05:47:35.838Z,94.70
2019-04-30T05:50:04.509Z,94.80
2019-04-30T05:52:30.744Z,94.90
2019-04-30T05:54:58.512Z,94.90
2019-04-30T05:57:25.233Z,94.80
2019-04-30T05:59:51.638Z,94.80
2019-04-30T06:02:19.427Z,94.80
2019-04-30T06:04:46.046Z,94.90
2019-04-30T06:07:12.398Z,94.90
2019-04-30T06:09:40.539Z,94.70
2019-04-30T06:12:14.400Z,94.80
2019-04-30T06:14:48.940Z,94.80
2019-04-30T06:17:21.895Z,94.90
2019-04-30T06:19:48.790Z,94.90
2019-04-30T06:22:18.994Z,95.00
2019-04-30T06:24:45.302Z,95.10
2019-04-30T06:27:11.734Z,95.00
2019-04-30T06:29:39.060Z,95.10
2019-04-30T06:32:06.066Z,95.20
2019-04-30T06:34:33.033Z,95.20
2019-04-30T06:36:59.635Z,95.20
2019-04-30T06:39:26.294Z,95.20
2019-04-30T06:42:04.271Z,95.20
2019-04-30T06:44:34.533Z,95.30
2019-04-30T06:46:51.713Z,95.40
2019-04-30T06:49:19.536Z,95.50
2019-04-30T06:51:45.815Z,95.70
2019-04-30T06:54:12.146Z,95.70
2019-04-30T06:56:38.764Z,95.50
2019-04-30T06:59:05.222Z,95.60
2019-04-30T07:01:32.493Z,95.60
2019-04-30T07:04:00.740Z,95.70
2019-04-30T07:06:31.848Z,95.60
2019-04-30T07:08:59.733Z,95.70
2019-04-30T07:11:29.296Z,95.70
2019-04-30T07:13:55.723Z,95.70
2019-04-30T07:16:21.972Z,95.70
2019-04-30T07:18:48.990Z,95.80
2019-04-30T07:21:15.347Z,95.70
2019-04-30T07:23:41.673Z,95.60
2019-04-30T07:26:09.050Z,95.60
2019-04-30T07:28:44.815Z,95.60
2019-04-30T07:31:11.698Z,95.60
2019-04-30T07:33:31.981Z,95.70
2019-04-30T07:36:01.450Z,95.90
2019-04-30T07:38:26.346Z,95.90
2019-04-30T07:40:52.589Z,95.90
2019-04-30T07:43:19.104Z,96.00
2019-04-30T07:45:45.368Z,95.80
2019-04-30T07:48:11.598Z,95.80
2019-04-30T07:50:40.423Z,95.80
2019-04-30T07:53:07.363Z,95.80
2019-04-30T07:55:34.520Z,95.90
2019-04-30T07:58:00.745Z,95.80
2019-04-30T08:00:31.014Z,95.70
2019-04-30T08:05:49.917Z,96.00
2019-04-30T08:08:21.707Z,96.00
2019-04-30T08:10:44.815Z,95.70
2019-04-30T08:13:14.937Z,95.60
2019-04-30T08:15:42.154Z,95.70
2019-04-30T08:18:08.728Z,95.70
2019-04-30T08:20:35.096Z,95.90
2019-04-30T08:23:13.338Z,95.70
2019-04-30T08:25:29.769Z,95.70
2019-04-30T08:27:55.999Z,95.60
2019-04-30T08:30:26.708Z,95.70
2019-04-30T08:32:50.415Z,95.70
2019-04-30T08:35:17.047Z,95.60
2019-04-30T08:37:43.289Z,95.60
2019-04-30T08:40:09.626Z,95.60
2019-04-30T08:42:37.867Z,95.70
2019-04-30T08:45:06.694Z,95.60
2019-04-30T08:47:32.929Z,95.70
2019-04-30T08:50:02.473Z,95.80
2019-04-30T08:52:27.451Z,95.70
2019-04-30T08:54:53.778Z,95.70
2019-04-30T08:57:20.106Z,95.80
2019-04-30T08:59:46.777Z,95.70
2019-04-30T09:02:16.367Z,95.70
2019-04-30T09:04:41.276Z,95.60
2019-04-30T09:07:10.133Z,95.60
2019-04-30T09:09:35.680Z,95.50
2019-04-30T09:12:01.914Z,95.60
2019-04-30T09:14:29.730Z,95.60
2019-04-30T09:16:56.312Z,95.40
2019-04-30T09:19:22.542Z,95.50
2019-04-30T09:21:48.967Z,95.60
2019-04-30T09:24:15.340Z,95.60
2019-04-30T09:26:41.581Z,95.70
2019-04-30T09:29:09.333Z,95.60
2019-04-30T09:31:35.728Z,95.70
2019-04-30T09:34:13.774Z,95.80
2019-04-30T09:36:30.156Z,95.70
2019-04-30T09:38:58.794Z,95.60
2019-04-30T09:41:24.558Z,95.40
2019-04-30T09:43:50.787Z,95.30
2019-04-30T09:46:24.542Z,95.10
2019-04-30T09:48:45.188Z,95.20
2019-04-30T09:51:11.975Z,95.20
2019-04-30T09:53:39.539Z,95.30
2019-04-30T09:56:06.217Z,95.20
2019-04-30T09:58:32.473Z,95.10
2019-04-30T10:00:59.357Z,95.00
2019-04-30T10:03:27.217Z,95.00
2019-04-30T10:05:53.620Z,95.20
2019-04-30T10:08:20.979Z,95.40
2019-04-30T10:11:05.287Z,95.30
2019-04-30T10:13:31.555Z,95.20
2019-04-30T10:15:59.695Z,95.30
2019-04-30T10:18:25.947Z,95.30
2019-04-30T10:20:53.518Z,95.30
2019-04-30T10:23:19.915Z,95.00
2019-04-30T10:25:46.543Z,95.50
2019-04-30T10:28:13.305Z,95.40
2019-04-30T10:30:39.570Z,95.10
2019-04-30T10:33:06.092Z,94.50
2019-04-30T10:35:32.620Z,93.20
2019-04-30T10:37:59.563Z,91.30
2019-04-30T10:40:28.569Z,91.00
2019-04-30T10:42:54.839Z,90.70
2019-04-30T10:45:21.374Z,89.70
2019-04-30T10:47:49.206Z,89.50
2019-04-30T10:50:16.210Z,89.50
2019-04-30T10:52:43.230Z,89.90
2019-04-30T10:55:09.877Z,89.40
2019-04-30T10:57:36.627Z,89.40
2019-04-30T11:00:10.124Z,90.20
2019-04-30T11:02:38.622Z,90.60
2019-04-30T11:05:06.375Z,90.60
2019-04-30T11:07:35.034Z,90.50
2019-04-30T11:10:06.593Z,89.40
2019-04-30T11:12:33.058Z,88.90
2019-04-30T11:14:59.313Z,88.40
2019-04-30T11:17:25.717Z,88.60
2019-04-30T11:19:52.417Z,88.30
2019-04-30T11:22:18.996Z,88.50
2019-04-30T11:24:56.600Z,87.70
2019-04-30T11:27:14.290Z,87.00
2019-04-30T11:29:41.129Z,86.50
2019-04-30T11:32:09.524Z,86.60
2019-04-30T11:34:38.172Z,87.10
2019-04-30T11:37:04.717Z,87.00
2019-04-30T11:39:31.071Z,84.80
2019-04-30T11:41:57.294Z,83.60
2019-04-30T11:44:30.803Z,82.60
2019-04-30T11:47:06.567Z,81.90
2019-04-30T11:49:32.782Z,82.40
2019-04-30T11:51:59.008Z,82.10
2019-04-30T11:54:25.366Z,82.90
2019-04-30T11:56:51.621Z,84.30
2019-04-30T11:59:19.561Z,85.40
2019-04-30T12:01:47.199Z,86.90
2019-04-30T12:04:13.574Z,86.80
2019-04-30T12:06:39.822Z,86.50
2019-04-30T12:09:12.063Z,84.60
2019-04-30T12:11:40.224Z,83.80
2019-04-30T12:14:06.594Z,83.70
2019-04-30T12:16:33.772Z,82.90
2019-04-30T12:19:01.516Z,81.40
2019-04-30T12:21:27.837Z,79.50
2019-04-30T12:23:54.072Z,78.90
2019-04-30T12:26:21.739Z,78.50
2019-04-30T12:28:49.903Z,78.00
2019-04-30T12:31:16.184Z,76.40
2019-04-30T12:33:42.427Z,76.80
2019-04-30T12:36:09.114Z,76.50
2019-04-30T12:38:35.400Z,76.50
2019-04-30T12:41:01.790Z,76.20
2019-04-30T12:43:28.023Z,76.30
2019-04-30T12:46:02.789Z,75.00
2019-04-30T12:48:41.182Z,75.60
2019-04-30T12:51:18.238Z,73.90
2019-04-30T12:53:58.424Z,74.10
2019-04-30T12:56:29.210Z,73.40
2019-04-30T12:58:55.432Z,74.70
2019-04-30T13:01:21.773Z,74.20
2019-04-30T13:03:56.640Z,74.60
2019-04-30T13:06:16.953Z,74.40
2019-04-30T13:08:44.085Z,75.90
2019-04-30T13:11:13.112Z,77.30
2019-04-30T13:13:41.737Z,75.70
2019-04-30T13:16:08.611Z,75.70
2019-04-30T13:18:34.764Z,76.20
2019-04-30T13:21:01.151Z,75.20
2019-04-30T13:23:27.472Z,75.30
2019-04-30T13:25:53.707Z,73.70
2019-04-30T13:28:21.867Z,74.10
2019-04-30T13:30:49.428Z,74.00
2019-04-30T13:33:20.555Z,74.80
2019-04-30T13:35:48.871Z,74.60
2019-04-30T13:38:45.135Z,75.60
2019-04-30T13:41:08.887Z,73.20
2019-04-30T13:43:55.475Z,73.90
2019-04-30T13:46:23.013Z,72.10
2019-04-30T13:48:49.243Z,71.70
2019-04-30T13:51:15.490Z,71.40
2019-04-30T13:53:41.754Z,71.10
2019-04-30T13:56:08.831Z,70.10
2019-04-30T13:58:35.135Z,70.30
2019-04-30T14:01:01.733Z,70.90
2019-04-30T14:03:32.735Z,69.80
2019-04-30T14:05:59.468Z,68.00
2019-04-30T14:08:38.748Z,68.40
2019-04-30T14:11:05.282Z,66.00
2019-04-30T14:13:31.717Z,65.50
2019-04-30T14:15:58.046Z,65.60
2019-04-30T14:18:30.599Z,65.10
2019-04-30T14:20:52.675Z,66.50
2019-04-30T14:23:18.919Z,65.30
2019-04-30T14:25:56.255Z,64.30
2019-04-30T14:28:16.333Z,64.80
2019-04-30T14:30:42.797Z,64.30
2019-04-30T14:33:09.517Z,64.20
2019-04-30T14:35:35.849Z,65.50
2019-04-30T14:38:04.974Z,65.40
2019-04-30T14:40:31.219Z,65.30
2019-04-30T14:43:03.053Z,66.80
2019-04-30T14:45:31.848Z,65.90
2019-04-30T14:48:01.363Z,64.50
2019-04-30T14:50:32.716Z,64.80
2019-04-30T14:53:06.940Z,64.50
2019-04-30T14:55:51.621Z,62.60
2019-04-30T14:58:36.402Z,62.90
2019-04-30T15:01:11.047Z,63.00
2019-04-30T15:03:39.368Z,63.40
2019-04-30T15:06:05.615Z,63.50
2019-04-30T15:08:31.994Z,64.50
2019-04-30T15:10:58.226Z,65.40
2019-04-30T15:13:24.664Z,64.80
2019-04-30T15:15:50.996Z,65.70
2019-04-30T15:18:19.179Z,66.10
2019-04-30T15:20:49.751Z,66.50
2019-04-30T15:23:36.028Z,64.30
2019-04-30T15:26:02.506Z,64.20
2019-04-30T15:28:32.195Z,64.80
2019-04-30T15:30:58.674Z,64.30
2019-04-30T15:33:33.016Z,65.00
2019-04-30T15:35:59.902Z,64.90
2019-04-30T15:38:45.006Z,64.30
2019-04-30T15:41:11.246Z,64.90
2019-04-30T15:43:37.499Z,66.00
2019-04-30T15:46:03.921Z,65.00
2019-04-30T15:48:30.300Z,65.60
2019-04-30T15:50:56.539Z,64.10
2019-04-30T15:53:22.773Z,64.90
2019-04-30T15:55:48.995Z,64.60
2019-04-30T15:58:20.339Z,63.90
2019-04-30T16:00:46.613Z,64.30
2019-04-30T16:03:14.760Z,64.40
2019-04-30T16:05:51.217Z,64.10
2019-04-30T16:08:19.365Z,63.50
2019-04-30T16:10:50.643Z,61.80
2019-04-30T16:13:21.905Z,61.80
2019-04-30T16:15:49.197Z,62.00
2019-04-30T16:18:15.572Z,62.70
2019-04-30T16:20:41.865Z,62.20
2019-04-30T16:23:09.144Z,62.60
2019-04-30T16:25:35.632Z,62.20
2019-04-30T16:28:01.974Z,62.20
2019-04-30T16:30:28.939Z,63.00
2019-04-30T16:33:02.800Z,63.20
2019-04-30T16:35:29.571Z,62.70
2019-04-30T16:37:56.045Z,62.20
2019-04-30T16:40:22.275Z,62.40
2019-04-30T16:42:49.056Z,63.00
2019-04-30T16:45:15.692Z,63.40
2019-04-30T16:47:41.921Z,63.30
2019-04-30T16:50:29.876Z,63.00
2019-04-30T16:52:56.267Z,63.60
2019-04-30T16:55:22.532Z,63.80
2019-04-30T16:57:49.839Z,64.50
2019-04-30T17:00:20.020Z,64.50
2019-04-30T17:02:49.688Z,64.40
2019-04-30T17:05:24.379Z,64.50
2019-04-30T17:07:55.448Z,64.00
2019-04-30T17:10:23.634Z,64.10
2019-04-30T17:13:09.269Z,64.10
2019-04-30T17:15:43.527Z,64.20
2019-04-30T17:18:11.944Z,64.20
2019-04-30T17:20:39.633Z,64.20
2019-04-30T17:23:05.882Z,63.90
2019-04-30T17:25:32.181Z,64.30
2019-04-30T17:28:01.341Z,64.60
2019-04-30T17:30:26.583Z,64.40
2019-04-30T17:32:52.860Z,64.00
2019-04-30T17:35:19.237Z,64.10
2019-04-30T17:37:45.540Z,64.40
2019-04-30T17:40:13.247Z,64.20
2019-04-30T17:42:39.506Z,64.30
2019-04-30T17:45:09.482Z,64.80
2019-04-30T17:47:35.876Z,64.80
2019-04-30T17:50:05.621Z,65.40
2019-04-30T17:52:31.862Z,65.10
2019-04-30T17:54:59.505Z,65.30
2019-04-30T17:57:32.326Z,65.10
2019-04-30T17:59:54.116Z,64.90
2019-04-30T18:02:22.377Z,65.60
2019-04-30T18:04:48.741Z,65.80
2019-04-30T18:07:34.879Z,66.80
2019-04-30T18:10:08.759Z,67.30
2019-04-30T18:12:35.311Z,68.10
2019-04-30T18:15:06.719Z,68.90
2019-04-30T18:17:33.053Z,69.40
2019-04-30T18:20:01.309Z,70.00
2019-04-30T18:22:29.574Z,70.60
2019-04-30T18:24:59.271Z,71.30
2019-04-30T18:27:42.668Z,71.70
2019-04-30T18:29:58.553Z,72.10
2019-04-30T18:32:29.572Z,72.60
2019-04-30T18:34:55.874Z,73.00
2019-04-30T18:37:22.312Z,73.20
2019-04-30T18:39:48.533Z,73.70
2019-04-30T18:42:15.425Z,74.10
2019-04-30T18:44:42.064Z,74.50
2019-04-30T18:47:09.250Z,74.80
2019-04-30T18:49:36.420Z,75.50
2019-04-30T18:52:04.160Z,75.60
2019-04-30T18:54:32.038Z,76.20
2019-04-30T18:56:59.897Z,76.50
2019-04-30T18:59:27.845Z,76.60
2019-04-30T19:01:55.593Z,76.60
2019-04-30T19:04:23.601Z,76.70
2019-04-30T19:06:53.533Z,76.90
2019-04-30T19:09:26.369Z,77.40
2019-04-30T19:11:56.176Z,77.50
2019-04-30T19:14:43.304Z,77.60
2019-04-30T19:17:15.927Z,77.70
2019-04-30T19:19:45.381Z,77.70
2019-04-30T19:22:13.633Z,77.80
2019-04-30T19:24:53.356Z,78.10
2019-04-30T19:27:11.453Z,78.40
2019-04-30T19:29:39.471Z,78.40
2019-04-30T19:32:09.404Z,78.50
2019-04-30T19:34:39.042Z,78.40
2019-04-30T19:37:08.650Z,78.30
2019-04-30T19:39:36.884Z,78.30
2019-04-30T19:42:04.725Z,78.20
2019-04-30T19:44:33.214Z,78.00
2019-04-30T19:47:01.446Z,78.00
2019-04-30T19:49:29.428Z,78.00
2019-04-30T19:52:06.237Z,78.20
2019-04-30T19:54:29.404Z,78.10
2019-04-30T19:56:58.588Z,78.30
2019-04-30T19:59:26.640Z,78.30
2019-04-30T20:01:54.675Z,78.30
2019-04-30T20:04:32.642Z,78.40
2019-04-30T20:06:52.366Z,78.40
2019-04-30T20:09:20.268Z,78.40
2019-04-30T20:11:49.284Z,78.30
2019-04-30T20:14:18.643Z,78.40
2019-04-30T20:16:48.377Z,78.50
2019-04-30T20:19:16.494Z,78.60
2019-04-30T20:21:51.344Z,78.70
2019-04-30T20:24:19.094Z,78.70
2019-04-30T20:26:50.229Z,78.90
2019-04-30T20:29:20.564Z,78.90
2019-04-30T20:31:48.794Z,79.00
2019-04-30T20:34:19.212Z,78.90
2019-04-30T20:36:47.261Z,78.70
2019-04-30T20:39:19.671Z,78.60
2019-04-30T20:41:48.974Z,78.70
2019-04-30T20:44:18.916Z,78.70
2019-04-30T20:46:49.005Z,78.80
2019-04-30T20:49:16.645Z,78.80
2019-04-30T20:51:54.917Z,78.90
2019-04-30T20:54:14.405Z,78.90
2019-04-30T20:56:42.342Z,78.70
2019-04-30T20:59:10.831Z,78.70
2019-04-30T21:01:39.439Z,78.60
2019-04-30T21:04:07.679Z,78.70
2019-04-30T21:06:35.613Z,78.70
2019-04-30T21:09:05.240Z,78.80
2019-04-30T21:11:32.875Z,78.90
2019-04-30T21:14:00.606Z,78.80
2019-04-30T21:16:27.892Z,78.90
2019-04-30T21:18:54.600Z,78.90
2019-04-30T21:21:20.850Z,78.90
2019-04-30T21:23:49.065Z,78.80
2019-04-30T21:26:15.327Z,78.90
2019-04-30T21:28:41.572Z,79.60
2019-04-30T21:31:26.285Z,78.90
2019-04-30T21:33:54.451Z,79.00
2019-04-30T21:36:22.632Z,79.00
2019-04-30T21:38:49.130Z,79.00
2019-04-30T21:41:15.437Z,79.10
2019-04-30T21:43:41.687Z,79.10
2019-04-30T21:46:09.519Z,79.10
2019-04-30T21:48:35.864Z,79.10
2019-04-30T21:51:02.322Z,79.20
2019-04-30T21:53:29.462Z,79.20
2019-04-30T21:55:55.902Z,79.50
2019-04-30T21:58:22.138Z,79.50
2019-04-30T22:01:07.914Z,79.50
2019-04-30T22:03:34.274Z,79.60
2019-04-30T22:06:00.507Z,79.60
2019-04-30T22:08:28.670Z,79.60
2019-04-30T22:10:54.924Z,79.60
2019-04-30T22:13:21.153Z,79.70
2019-04-30T22:15:47.394Z,79.70
2019-04-30T22:18:13.634Z,79.80
2019-04-30T22:20:39.881Z,79.90
2019-04-30T22:23:06.131Z,79.80
2019-04-30T22:25:32.344Z,79.80
2019-04-30T22:27:58.610Z,79.70
2019-04-30T22:30:24.862Z,79.70
2019-04-30T22:32:51.097Z,79.70
2019-04-30T22:35:27.970Z,79.60
2019-04-30T22:37:56.157Z,79.70
2019-04-30T22:40:22.393Z,79.80
2019-04-30T22:42:49.520Z,79.50
2019-04-30T22:45:18.113Z,79.60
2019-04-30T22:47:44.349Z,79.60
2019-04-30T22:50:11.123Z,79.60
2019-04-30T22:52:38.454Z,79.70
2019-04-30T22:55:06.886Z,79.70
2019-04-30T22:57:33.135Z,79.80
2019-04-30T22:59:59.463Z,80.00
2019-04-30T23:02:33.529Z,80.20
2019-04-30T23:05:01.581Z,80.30
2019-04-30T23:07:27.802Z,80.40
2019-04-30T23:09:54.039Z,80.60
2019-04-30T23:12:20.394Z,80.90
2019-04-30T23:14:46.648Z,81.70
2019-04-30T23:17:13.095Z,81.20
2019-04-30T23:19:39.932Z,82.40
2019-04-30T23:22:06.411Z,82.60
2019-04-30T23:24:32.705Z,82.80
2019-04-30T23:26:58.892Z,83.20
2019-04-30T23:29:25.132Z,83.40
2019-04-30T23:31:51.360Z,83.50
2019-04-30T23:34:18.402Z,83.70
2019-04-30T23:36:44.806Z,83.90
2019-04-30T23:39:11.231Z,84.30
2019-04-30T23:41:37.459Z,84.70
2019-04-30T23:44:03.704Z,84.80
2019-04-30T23:46:29.923Z,85.00
2019-04-30T23:48:56.197Z,85.10
2019-04-30T23:51:22.430Z,85.30
2019-04-30T23:53:48.759Z,85.50
2019-04-30T23:56:14.995Z,85.70
2019-04-30T23:58:41.224Z,85.90
